sensor_id;sensor_type;location;lat;lon;timestamp;temperature;humidity
15617;DHT22;7908;51.688;7.130;2023-04-01T00:01:16;9.40;99.90
15617;DHT22;7908;51.688;7.130;2023-04-01T00:03:45;9.40;99.90
15617;DHT22;7908;51.688;7.130;2023-04-01T00:06:16;9.40;99.90
15617;DHT22;7908;51.688;7.130;2023-04-01T00:08:47;9.40;99.90
15617;DHT22;7908;51.688;7.130;2023-04-01T00:11:16;9.40;99.90
15617;DHT22;7908;51.688;7.130;2023-04-01T00:13:47;9.40;99.90
15617;DHT22;7908;51.688;7.130;2023-04-01T00:16:16;9.40;99.90
15617;DHT22;7908;51.688;7.130;2023-04-01T00:18:49;9.40;99.90
15617;DHT22;7908;51.688;7.130;2023-04-01T00:21:19;9.40;99.90
15617;DHT22;7908;51.688;7.130;2023-04-01T00:23:50;9.50;99.90
15617;DHT22;7908;51.688;7.130;2023-04-01T00:26:20;9.40;99.90
15617;DHT22;7908;51.688;7.130;2023-04-01T00:28:50;9.50;99.90
15617;DHT22;7908;51.688;7.130;2023-04-01T00:31:19;9.50;99.90
15617;DHT22;7908;51.688;7.130;2023-04-01T00:33:47;9.40;99.90
15617;DHT22;7908;51.688;7.130;2023-04-01T00:36:18;9.40;99.90
15617;DHT22;7908;51.688;7.130;2023-04-01T00:38:47;9.50;99.90
15617;DHT22;7908;51.688;7.130;2023-04-01T00:41:19;9.50;99.90
15617;DHT22;7908;51.688;7.130;2023-04-01T00:43:50;9.40;99.90
15617;DHT22;7908;51.688;7.130;2023-04-01T00:46:19;9.40;99.90
15617;DHT22;7908;51.688;7.130;2023-04-01T00:48:50;9.40;99.90
15617;DHT22;7908;51.688;7.130;2023-04-01T00:51:22;9.40;99.90
15617;DHT22;7908;51.688;7.130;2023-04-01T00:53:53;9.40;99.90
15617;DHT22;7908;51.688;7.130;2023-04-01T00:56:27;9.30;99.90
15617;DHT22;7908;51.688;7.130;2023-04-01T00:59:01;9.40;99.90
15617;DHT22;7908;51.688;7.130;2023-04-01T01:01:30;9.40;99.90
15617;DHT22;7908;51.688;7.130;2023-04-01T01:03:59;9.40;99.90
15617;DHT22;7908;51.688;7.130;2023-04-01T01:06:38;9.40;99.90
15617;DHT22;7908;51.688;7.130;2023-04-01T01:09:37;9.40;99.90
15617;DHT22;7908;51.688;7.130;2023-04-01T01:12:14;9.40;99.90
15617;DHT22;7908;51.688;7.130;2023-04-01T01:14:59;9.50;99.90
15617;DHT22;7908;51.688;7.130;2023-04-01T01:17:36;9.40;99.90
15617;DHT22;7908;51.688;7.130;2023-04-01T01:20:26;9.40;99.90
15617;DHT22;7908;51.688;7.130;2023-04-01T01:26:09;9.40;99.90
15617;DHT22;7908;51.688;7.130;2023-04-01T01:28:50;9.40;99.90
15617;DHT22;7908;51.688;7.130;2023-04-01T01:31:32;9.40;99.90
15617;DHT22;7908;51.688;7.130;2023-04-01T01:34:11;9.40;99.90
15617;DHT22;7908;51.688;7.130;2023-04-01T01:36:44;9.40;99.90
15617;DHT22;7908;51.688;7.130;2023-04-01T01:39:15;9.30;99.90
15617;DHT22;7908;51.688;7.130;2023-04-01T01:41:46;9.30;99.90
15617;DHT22;7908;51.688;7.130;2023-04-01T01:44:16;9.30;99.90
15617;DHT22;7908;51.688;7.130;2023-04-01T01:46:46;9.30;99.90
15617;DHT22;7908;51.688;7.130;2023-04-01T01:49:17;9.30;99.90
15617;DHT22;7908;51.688;7.130;2023-04-01T01:51:48;9.40;99.90
15617;DHT22;7908;51.688;7.130;2023-04-01T01:54:17;9.30;99.90
15617;DHT22;7908;51.688;7.130;2023-04-01T01:56:49;9.30;99.90
15617;DHT22;7908;51.688;7.130;2023-04-01T01:59:22;9.30;99.90
15617;DHT22;7908;51.688;7.130;2023-04-01T02:01:55;9.30;99.90
15617;DHT22;7908;51.688;7.130;2023-04-01T02:04:24;9.20;99.90
15617;DHT22;7908;51.688;7.130;2023-04-01T02:06:58;9.20;99.90
15617;DHT22;7908;51.688;7.130;2023-04-01T02:09:28;9.20;99.90
15617;DHT22;7908;51.688;7.130;2023-04-01T02:11:59;9.20;99.90
15617;DHT22;7908;51.688;7.130;2023-04-01T02:14:34;9.20;99.90
15617;DHT22;7908;51.688;7.130;2023-04-01T02:17:08;9.20;99.90
15617;DHT22;7908;51.688;7.130;2023-04-01T02:19:40;9.20;99.90
15617;DHT22;7908;51.688;7.130;2023-04-01T02:22:16;9.20;99.90
15617;DHT22;7908;51.688;7.130;2023-04-01T02:24:49;9.20;99.90
15617;DHT22;7908;51.688;7.130;2023-04-01T02:27:19;9.20;99.90
15617;DHT22;7908;51.688;7.130;2023-04-01T02:29:48;9.20;99.90
15617;DHT22;7908;51.688;7.130;2023-04-01T02:32:18;9.20;99.90
15617;DHT22;7908;51.688;7.130;2023-04-01T02:34:48;9.20;99.90
15617;DHT22;7908;51.688;7.130;2023-04-01T02:37:18;9.20;99.90
15617;DHT22;7908;51.688;7.130;2023-04-01T02:39:47;9.20;99.90
15617;DHT22;7908;51.688;7.130;2023-04-01T02:42:15;9.20;99.90
15617;DHT22;7908;51.688;7.130;2023-04-01T02:44:44;9.20;99.90
15617;DHT22;7908;51.688;7.130;2023-04-01T02:47:13;9.20;99.90
15617;DHT22;7908;51.688;7.130;2023-04-01T02:49:44;9.20;99.90
15617;DHT22;7908;51.688;7.130;2023-04-01T02:52:12;9.20;99.90
15617;DHT22;7908;51.688;7.130;2023-04-01T02:54:43;9.20;99.90
15617;DHT22;7908;51.688;7.130;2023-04-01T02:57:11;9.20;99.90
15617;DHT22;7908;51.688;7.130;2023-04-01T02:59:40;9.20;99.90
15617;DHT22;7908;51.688;7.130;2023-04-01T03:02:09;9.20;99.90
15617;DHT22;7908;51.688;7.130;2023-04-01T03:04:37;9.20;99.90
15617;DHT22;7908;51.688;7.130;2023-04-01T03:07:06;9.30;99.90
15617;DHT22;7908;51.688;7.130;2023-04-01T03:09:35;9.20;99.90
15617;DHT22;7908;51.688;7.130;2023-04-01T03:12:05;9.30;99.90
15617;DHT22;7908;51.688;7.130;2023-04-01T03:14:34;9.30;99.90
15617;DHT22;7908;51.688;7.130;2023-04-01T03:17:03;9.20;99.90
15617;DHT22;7908;51.688;7.130;2023-04-01T03:19:32;9.20;99.90
15617;DHT22;7908;51.688;7.130;2023-04-01T03:22:01;9.30;99.90
15617;DHT22;7908;51.688;7.130;2023-04-01T03:24:29;9.30;99.90
15617;DHT22;7908;51.688;7.130;2023-04-01T03:26:58;9.30;99.90
15617;DHT22;7908;51.688;7.130;2023-04-01T03:29:28;9.30;99.90
15617;DHT22;7908;51.688;7.130;2023-04-01T03:31:57;9.30;99.90
15617;DHT22;7908;51.688;7.130;2023-04-01T03:34:26;9.20;99.90
15617;DHT22;7908;51.688;7.130;2023-04-01T03:36:54;9.30;99.90
15617;DHT22;7908;51.688;7.130;2023-04-01T03:39:23;9.30;99.90
15617;DHT22;7908;51.688;7.130;2023-04-01T03:41:52;9.20;99.90
15617;DHT22;7908;51.688;7.130;2023-04-01T03:44:20;9.30;99.90
15617;DHT22;7908;51.688;7.130;2023-04-01T03:46:50;9.20;99.90
15617;DHT22;7908;51.688;7.130;2023-04-01T03:49:19;9.30;99.90
15617;DHT22;7908;51.688;7.130;2023-04-01T03:51:48;9.30;99.90
15617;DHT22;7908;51.688;7.130;2023-04-01T03:54:18;9.30;99.90
15617;DHT22;7908;51.688;7.130;2023-04-01T03:56:47;9.30;99.90
15617;DHT22;7908;51.688;7.130;2023-04-01T03:59:16;9.30;99.90
15617;DHT22;7908;51.688;7.130;2023-04-01T04:01:46;9.30;99.90
15617;DHT22;7908;51.688;7.130;2023-04-01T04:04:16;9.30;99.90
15617;DHT22;7908;51.688;7.130;2023-04-01T04:06:45;9.30;99.90
15617;DHT22;7908;51.688;7.130;2023-04-01T04:09:13;9.30;99.90
15617;DHT22;7908;51.688;7.130;2023-04-01T04:11:42;9.30;99.90
15617;DHT22;7908;51.688;7.130;2023-04-01T04:14:11;9.30;99.90
15617;DHT22;7908;51.688;7.130;2023-04-01T04:16:40;9.30;99.90
15617;DHT22;7908;51.688;7.130;2023-04-01T04:19:08;9.30;99.90
15617;DHT22;7908;51.688;7.130;2023-04-01T04:21:39;9.30;99.90
15617;DHT22;7908;51.688;7.130;2023-04-01T04:24:09;9.30;99.90
15617;DHT22;7908;51.688;7.130;2023-04-01T04:26:38;9.30;99.90
15617;DHT22;7908;51.688;7.130;2023-04-01T04:29:06;9.30;99.90
15617;DHT22;7908;51.688;7.130;2023-04-01T04:31:35;9.30;99.90
15617;DHT22;7908;51.688;7.130;2023-04-01T04:34:03;9.30;99.90
15617;DHT22;7908;51.688;7.130;2023-04-01T04:36:32;9.30;99.90
15617;DHT22;7908;51.688;7.130;2023-04-01T04:39:02;9.30;99.90
15617;DHT22;7908;51.688;7.130;2023-04-01T04:41:30;9.40;99.90
15617;DHT22;7908;51.688;7.130;2023-04-01T04:44:01;9.40;99.90
15617;DHT22;7908;51.688;7.130;2023-04-01T04:46:30;9.40;99.90
15617;DHT22;7908;51.688;7.130;2023-04-01T04:48:59;9.40;99.90
15617;DHT22;7908;51.688;7.130;2023-04-01T04:51:28;9.40;99.90
15617;DHT22;7908;51.688;7.130;2023-04-01T04:53:56;9.40;99.90
15617;DHT22;7908;51.688;7.130;2023-04-01T04:56:26;9.40;99.90
15617;DHT22;7908;51.688;7.130;2023-04-01T04:58:55;9.30;99.90
15617;DHT22;7908;51.688;7.130;2023-04-01T05:01:24;9.40;99.90
15617;DHT22;7908;51.688;7.130;2023-04-01T05:03:52;9.40;99.90
15617;DHT22;7908;51.688;7.130;2023-04-01T05:06:21;9.30;99.90
15617;DHT22;7908;51.688;7.130;2023-04-01T05:08:50;9.40;99.90
15617;DHT22;7908;51.688;7.130;2023-04-01T05:11:19;9.40;99.90
15617;DHT22;7908;51.688;7.130;2023-04-01T05:13:49;9.40;99.90
15617;DHT22;7908;51.688;7.130;2023-04-01T05:16:19;9.40;99.90
15617;DHT22;7908;51.688;7.130;2023-04-01T05:18:48;9.40;99.90
15617;DHT22;7908;51.688;7.130;2023-04-01T05:21:17;9.40;99.90
15617;DHT22;7908;51.688;7.130;2023-04-01T05:23:45;9.40;99.90
15617;DHT22;7908;51.688;7.130;2023-04-01T05:26:14;9.40;99.90
15617;DHT22;7908;51.688;7.130;2023-04-01T05:28:43;9.40;99.90
15617;DHT22;7908;51.688;7.130;2023-04-01T05:31:13;9.40;99.90
15617;DHT22;7908;51.688;7.130;2023-04-01T05:33:42;9.40;99.90
15617;DHT22;7908;51.688;7.130;2023-04-01T05:36:16;9.40;99.90
15617;DHT22;7908;51.688;7.130;2023-04-01T05:38:44;9.40;99.90
15617;DHT22;7908;51.688;7.130;2023-04-01T05:41:14;9.40;99.90
15617;DHT22;7908;51.688;7.130;2023-04-01T05:43:43;9.40;99.90
15617;DHT22;7908;51.688;7.130;2023-04-01T05:46:13;9.40;99.90
15617;DHT22;7908;51.688;7.130;2023-04-01T05:48:42;9.40;99.90
15617;DHT22;7908;51.688;7.130;2023-04-01T05:51:12;9.40;99.90
15617;DHT22;7908;51.688;7.130;2023-04-01T05:53:41;9.40;99.90
15617;DHT22;7908;51.688;7.130;2023-04-01T05:56:10;9.40;99.90
15617;DHT22;7908;51.688;7.130;2023-04-01T05:58:39;9.40;99.90
15617;DHT22;7908;51.688;7.130;2023-04-01T06:01:09;9.50;99.90
15617;DHT22;7908;51.688;7.130;2023-04-01T06:03:44;9.50;99.90
15617;DHT22;7908;51.688;7.130;2023-04-01T06:06:15;9.50;99.90
15617;DHT22;7908;51.688;7.130;2023-04-01T06:08:44;9.50;99.90
15617;DHT22;7908;51.688;7.130;2023-04-01T06:11:23;9.40;99.90
15617;DHT22;7908;51.688;7.130;2023-04-01T06:14:07;9.50;99.90
15617;DHT22;7908;51.688;7.130;2023-04-01T06:16:47;9.50;99.90
15617;DHT22;7908;51.688;7.130;2023-04-01T06:19:27;9.50;99.90
15617;DHT22;7908;51.688;7.130;2023-04-01T06:22:34;9.50;99.90
15617;DHT22;7908;51.688;7.130;2023-04-01T06:25:31;9.50;99.90
15617;DHT22;7908;51.688;7.130;2023-04-01T06:28:27;9.50;99.90
15617;DHT22;7908;51.688;7.130;2023-04-01T06:31:05;9.50;99.90
15617;DHT22;7908;51.688;7.130;2023-04-01T06:33:50;9.50;99.90
15617;DHT22;7908;51.688;7.130;2023-04-01T06:36:39;9.50;99.90
15617;DHT22;7908;51.688;7.130;2023-04-01T06:39:22;9.50;99.90
15617;DHT22;7908;51.688;7.130;2023-04-01T06:42:14;9.60;99.90
15617;DHT22;7908;51.688;7.130;2023-04-01T06:44:55;9.50;99.90
15617;DHT22;7908;51.688;7.130;2023-04-01T06:47:37;9.50;99.90
15617;DHT22;7908;51.688;7.130;2023-04-01T06:50:17;9.50;99.90
15617;DHT22;7908;51.688;7.130;2023-04-01T06:52:57;9.60;99.90
15617;DHT22;7908;51.688;7.130;2023-04-01T06:55:32;9.60;99.90
15617;DHT22;7908;51.688;7.130;2023-04-01T06:58:10;9.60;99.90
15617;DHT22;7908;51.688;7.130;2023-04-01T07:00:41;9.50;99.90
15617;DHT22;7908;51.688;7.130;2023-04-01T07:03:16;9.60;99.90
15617;DHT22;7908;51.688;7.130;2023-04-01T07:05:46;9.60;99.90
15617;DHT22;7908;51.688;7.130;2023-04-01T07:08:20;9.60;99.90
15617;DHT22;7908;51.688;7.130;2023-04-01T07:10:54;9.60;99.90
15617;DHT22;7908;51.688;7.130;2023-04-01T07:13:27;9.60;99.90
15617;DHT22;7908;51.688;7.130;2023-04-01T07:16:10;9.60;99.90
15617;DHT22;7908;51.688;7.130;2023-04-01T07:18:44;9.60;99.90
15617;DHT22;7908;51.688;7.130;2023-04-01T07:21:24;9.60;99.90
15617;DHT22;7908;51.688;7.130;2023-04-01T07:23:59;9.60;99.90
15617;DHT22;7908;51.688;7.130;2023-04-01T07:26:29;9.60;99.90
15617;DHT22;7908;51.688;7.130;2023-04-01T07:28:58;9.60;99.90
15617;DHT22;7908;51.688;7.130;2023-04-01T07:31:38;9.70;99.90
15617;DHT22;7908;51.688;7.130;2023-04-01T07:34:16;9.70;99.90
15617;DHT22;7908;51.688;7.130;2023-04-01T07:36:51;9.70;99.90
15617;DHT22;7908;51.688;7.130;2023-04-01T07:39:34;9.80;99.90
15617;DHT22;7908;51.688;7.130;2023-04-01T07:42:09;9.80;99.90
15617;DHT22;7908;51.688;7.130;2023-04-01T07:44:47;9.80;99.90
15617;DHT22;7908;51.688;7.130;2023-04-01T07:50:18;9.80;99.90
15617;DHT22;7908;51.688;7.130;2023-04-01T07:52:54;9.90;99.90
15617;DHT22;7908;51.688;7.130;2023-04-01T07:55:31;9.90;99.90
15617;DHT22;7908;51.688;7.130;2023-04-01T07:58:09;9.90;99.90
15617;DHT22;7908;51.688;7.130;2023-04-01T08:00:44;10.00;99.90
15617;DHT22;7908;51.688;7.130;2023-04-01T08:03:33;10.00;99.90
15617;DHT22;7908;51.688;7.130;2023-04-01T08:06:10;10.00;99.90
15617;DHT22;7908;51.688;7.130;2023-04-01T08:08:51;9.90;99.90
15617;DHT22;7908;51.688;7.130;2023-04-01T08:11:35;9.90;99.90
15617;DHT22;7908;51.688;7.130;2023-04-01T08:14:17;9.90;99.90
15617;DHT22;7908;51.688;7.130;2023-04-01T08:16:54;9.90;99.90
15617;DHT22;7908;51.688;7.130;2023-04-01T08:19:40;10.00;99.90
15617;DHT22;7908;51.688;7.130;2023-04-01T08:22:18;10.00;99.90
15617;DHT22;7908;51.688;7.130;2023-04-01T08:24:49;10.00;99.90
15617;DHT22;7908;51.688;7.130;2023-04-01T08:27:23;10.10;99.90
15617;DHT22;7908;51.688;7.130;2023-04-01T08:29:57;10.00;99.90
15617;DHT22;7908;51.688;7.130;2023-04-01T08:32:30;10.00;99.90
15617;DHT22;7908;51.688;7.130;2023-04-01T08:35:09;10.10;99.90
15617;DHT22;7908;51.688;7.130;2023-04-01T08:37:43;10.20;99.90
15617;DHT22;7908;51.688;7.130;2023-04-01T08:40:39;10.10;99.90
15617;DHT22;7908;51.688;7.130;2023-04-01T08:43:16;10.30;99.90
15617;DHT22;7908;51.688;7.130;2023-04-01T08:46:12;10.30;99.90
15617;DHT22;7908;51.688;7.130;2023-04-01T08:49:05;10.30;99.90
15617;DHT22;7908;51.688;7.130;2023-04-01T08:52:06;10.30;99.90
15617;DHT22;7908;51.688;7.130;2023-04-01T08:54:59;10.30;99.90
15617;DHT22;7908;51.688;7.130;2023-04-01T08:57:39;10.30;99.90
15617;DHT22;7908;51.688;7.130;2023-04-01T09:00:25;10.30;99.90
15617;DHT22;7908;51.688;7.130;2023-04-01T09:03:22;10.30;99.90
15617;DHT22;7908;51.688;7.130;2023-04-01T09:06:12;10.30;99.90
15617;DHT22;7908;51.688;7.130;2023-04-01T09:09:09;10.30;99.90
15617;DHT22;7908;51.688;7.130;2023-04-01T09:11:57;10.40;99.90
15617;DHT22;7908;51.688;7.130;2023-04-01T09:14:46;10.30;99.90
15617;DHT22;7908;51.688;7.130;2023-04-01T09:17:58;10.30;99.90
15617;DHT22;7908;51.688;7.130;2023-04-01T09:20:50;10.20;99.90
15617;DHT22;7908;51.688;7.130;2023-04-01T09:23:47;10.20;99.90
15617;DHT22;7908;51.688;7.130;2023-04-01T09:26:30;10.20;99.90
15617;DHT22;7908;51.688;7.130;2023-04-01T09:29:16;10.20;99.90
15617;DHT22;7908;51.688;7.130;2023-04-01T09:34:58;10.30;99.90
15617;DHT22;7908;51.688;7.130;2023-04-01T09:37:51;10.30;99.90
15617;DHT22;7908;51.688;7.130;2023-04-01T09:40:30;10.40;99.90
15617;DHT22;7908;51.688;7.130;2023-04-01T09:43:27;10.40;99.90
15617;DHT22;7908;51.688;7.130;2023-04-01T09:46:24;10.40;99.90
15617;DHT22;7908;51.688;7.130;2023-04-01T09:49:21;10.50;99.90
15617;DHT22;7908;51.688;7.130;2023-04-01T09:54:59;10.50;99.90
15617;DHT22;7908;51.688;7.130;2023-04-01T09:58:07;10.50;99.90
15617;DHT22;7908;51.688;7.130;2023-04-01T10:07:20;10.50;99.90
15617;DHT22;7908;51.688;7.130;2023-04-01T10:13:29;10.60;99.90
15617;DHT22;7908;51.688;7.130;2023-04-01T10:19:20;10.80;99.90
15617;DHT22;7908;51.688;7.130;2023-04-01T10:31:56;10.70;99.90
15617;DHT22;7908;51.688;7.130;2023-04-01T10:40:36;10.90;99.90
15617;DHT22;7908;51.688;7.130;2023-04-01T10:43:41;11.00;99.90
15617;DHT22;7908;51.688;7.130;2023-04-01T10:55:44;10.90;99.90
15617;DHT22;7908;51.688;7.130;2023-04-01T10:59:00;10.90;99.90
15617;DHT22;7908;51.688;7.130;2023-04-01T11:18:18;10.90;99.90
15617;DHT22;7908;51.688;7.130;2023-04-01T11:21:21;10.90;99.90
15617;DHT22;7908;51.688;7.130;2023-04-01T11:24:21;10.90;99.90
15617;DHT22;7908;51.688;7.130;2023-04-01T11:27:08;10.90;99.90
15617;DHT22;7908;51.688;7.130;2023-04-01T11:29:49;10.90;99.90
15617;DHT22;7908;51.688;7.130;2023-04-01T11:32:41;10.90;99.90
15617;DHT22;7908;51.688;7.130;2023-04-01T11:35:49;11.00;99.90
15617;DHT22;7908;51.688;7.130;2023-04-01T11:38:38;10.90;99.90
15617;DHT22;7908;51.688;7.130;2023-04-01T11:41:22;11.00;99.90
15617;DHT22;7908;51.688;7.130;2023-04-01T11:44:04;11.00;99.90
15617;DHT22;7908;51.688;7.130;2023-04-01T11:46:42;10.90;99.90
15617;DHT22;7908;51.688;7.130;2023-04-01T11:49:29;11.00;99.90
15617;DHT22;7908;51.688;7.130;2023-04-01T11:52:21;10.90;99.90
15617;DHT22;7908;51.688;7.130;2023-04-01T11:58:03;11.10;99.90
15617;DHT22;7908;51.688;7.130;2023-04-01T12:00:58;11.00;99.90
15617;DHT22;7908;51.688;7.130;2023-04-01T12:03:48;11.00;99.90
15617;DHT22;7908;51.688;7.130;2023-04-01T12:06:25;11.00;99.90
15617;DHT22;7908;51.688;7.130;2023-04-01T12:09:04;10.90;99.90
15617;DHT22;7908;51.688;7.130;2023-04-01T12:11:45;10.90;99.90
15617;DHT22;7908;51.688;7.130;2023-04-01T12:14:19;11.20;99.90
15617;DHT22;7908;51.688;7.130;2023-04-01T12:16:58;10.90;99.90
15617;DHT22;7908;51.688;7.130;2023-04-01T12:19:37;10.90;99.90
15617;DHT22;7908;51.688;7.130;2023-04-01T12:22:36;10.90;99.90
15617;DHT22;7908;51.688;7.130;2023-04-01T12:25:27;10.90;99.90
15617;DHT22;7908;51.688;7.130;2023-04-01T12:28:08;10.90;99.90
15617;DHT22;7908;51.688;7.130;2023-04-01T12:30:50;10.80;99.90
15617;DHT22;7908;51.688;7.130;2023-04-01T12:33:48;10.80;99.90
15617;DHT22;7908;51.688;7.130;2023-04-01T12:36:45;10.80;99.90
15617;DHT22;7908;51.688;7.130;2023-04-01T12:39:32;10.80;99.90
15617;DHT22;7908;51.688;7.130;2023-04-01T12:42:12;10.80;99.90
15617;DHT22;7908;51.688;7.130;2023-04-01T12:44:54;10.90;99.90
15617;DHT22;7908;51.688;7.130;2023-04-01T12:47:35;10.80;99.90
15617;DHT22;7908;51.688;7.130;2023-04-01T12:50:24;10.90;99.90
15617;DHT22;7908;51.688;7.130;2023-04-01T12:53:06;10.90;99.90
15617;DHT22;7908;51.688;7.130;2023-04-01T12:55:39;10.90;99.90
15617;DHT22;7908;51.688;7.130;2023-04-01T13:01:47;11.00;99.90
15617;DHT22;7908;51.688;7.130;2023-04-01T13:07:38;11.00;99.90
15617;DHT22;7908;51.688;7.130;2023-04-01T13:10:20;11.00;99.90
15617;DHT22;7908;51.688;7.130;2023-04-01T13:13:05;10.90;99.90
15617;DHT22;7908;51.688;7.130;2023-04-01T13:15:40;10.90;99.90
15617;DHT22;7908;51.688;7.130;2023-04-01T13:18:21;10.90;99.90
15617;DHT22;7908;51.688;7.130;2023-04-01T13:21:01;10.80;99.90
15617;DHT22;7908;51.688;7.130;2023-04-01T13:23:42;10.80;99.90
15617;DHT22;7908;51.688;7.130;2023-04-01T13:26:18;10.80;99.90
15617;DHT22;7908;51.688;7.130;2023-04-01T13:28:53;10.70;99.90
15617;DHT22;7908;51.688;7.130;2023-04-01T13:31:33;10.70;99.90
15617;DHT22;7908;51.688;7.130;2023-04-01T13:34:21;10.70;99.90
15617;DHT22;7908;51.688;7.130;2023-04-01T13:37:00;10.70;99.90
15617;DHT22;7908;51.688;7.130;2023-04-01T13:39:44;10.70;99.90
15617;DHT22;7908;51.688;7.130;2023-04-01T13:42:21;10.70;99.90
15617;DHT22;7908;51.688;7.130;2023-04-01T13:44:56;10.80;99.90
15617;DHT22;7908;51.688;7.130;2023-04-01T13:50:54;10.80;99.90
15617;DHT22;7908;51.688;7.130;2023-04-01T13:56:33;10.80;99.90
15617;DHT22;7908;51.688;7.130;2023-04-01T14:02:20;10.80;99.90
15617;DHT22;7908;51.688;7.130;2023-04-01T14:05:11;10.90;99.90
15617;DHT22;7908;51.688;7.130;2023-04-01T14:07:55;10.80;99.90
15617;DHT22;7908;51.688;7.130;2023-04-01T14:10:31;10.80;99.90
15617;DHT22;7908;51.688;7.130;2023-04-01T14:13:09;10.80;99.90
15617;DHT22;7908;51.688;7.130;2023-04-01T14:15:51;10.80;99.90
15617;DHT22;7908;51.688;7.130;2023-04-01T14:18:42;10.80;99.90
15617;DHT22;7908;51.688;7.130;2023-04-01T14:21:28;10.80;99.90
15617;DHT22;7908;51.688;7.130;2023-04-01T14:24:18;10.80;99.90
15617;DHT22;7908;51.688;7.130;2023-04-01T14:27:09;10.80;99.90
15617;DHT22;7908;51.688;7.130;2023-04-01T14:32:44;10.80;99.90
15617;DHT22;7908;51.688;7.130;2023-04-01T14:35:33;10.80;99.90
15617;DHT22;7908;51.688;7.130;2023-04-01T14:38:27;10.80;99.90
15617;DHT22;7908;51.688;7.130;2023-04-01T14:41:06;10.80;99.90
15617;DHT22;7908;51.688;7.130;2023-04-01T14:44:01;10.80;99.90
15617;DHT22;7908;51.688;7.130;2023-04-01T14:49:44;10.90;99.90
15617;DHT22;7908;51.688;7.130;2023-04-01T14:52:17;10.80;99.90
15617;DHT22;7908;51.688;7.130;2023-04-01T14:54:50;10.80;99.90
15617;DHT22;7908;51.688;7.130;2023-04-01T14:57:26;10.80;99.90
15617;DHT22;7908;51.688;7.130;2023-04-01T15:00:00;10.90;99.90
15617;DHT22;7908;51.688;7.130;2023-04-01T15:02:45;10.90;99.90
15617;DHT22;7908;51.688;7.130;2023-04-01T15:05:27;10.90;99.90
15617;DHT22;7908;51.688;7.130;2023-04-01T15:08:18;10.90;99.90
15617;DHT22;7908;51.688;7.130;2023-04-01T15:17:05;10.90;99.90
15617;DHT22;7908;51.688;7.130;2023-04-01T15:19:54;11.00;99.90
15617;DHT22;7908;51.688;7.130;2023-04-01T15:22:40;10.90;99.90
15617;DHT22;7908;51.688;7.130;2023-04-01T15:25:26;10.90;99.90
15617;DHT22;7908;51.688;7.130;2023-04-01T15:28:03;11.00;99.90
15617;DHT22;7908;51.688;7.130;2023-04-01T15:30:38;11.00;99.90
15617;DHT22;7908;51.688;7.130;2023-04-01T15:33:23;11.10;99.90
15617;DHT22;7908;51.688;7.130;2023-04-01T15:36:02;11.10;99.90
15617;DHT22;7908;51.688;7.130;2023-04-01T15:38:39;11.00;99.90
15617;DHT22;7908;51.688;7.130;2023-04-01T15:41:15;11.00;99.90
15617;DHT22;7908;51.688;7.130;2023-04-01T15:43:46;11.00;99.90
15617;DHT22;7908;51.688;7.130;2023-04-01T15:46:43;11.00;99.90
15617;DHT22;7908;51.688;7.130;2023-04-01T15:49:26;11.00;99.90
15617;DHT22;7908;51.688;7.130;2023-04-01T15:52:14;11.00;99.90
15617;DHT22;7908;51.688;7.130;2023-04-01T15:55:17;11.00;99.90
15617;DHT22;7908;51.688;7.130;2023-04-01T15:58:03;11.00;99.90
15617;DHT22;7908;51.688;7.130;2023-04-01T16:00:42;11.00;99.90
15617;DHT22;7908;51.688;7.130;2023-04-01T16:03:24;10.90;99.90
15617;DHT22;7908;51.688;7.130;2023-04-01T16:06:18;11.00;99.90
15617;DHT22;7908;51.688;7.130;2023-04-01T16:09:02;10.90;99.90
15617;DHT22;7908;51.688;7.130;2023-04-01T16:11:45;10.90;99.90
15617;DHT22;7908;51.688;7.130;2023-04-01T16:14:28;10.90;99.90
15617;DHT22;7908;51.688;7.130;2023-04-01T16:17:11;10.90;99.90
15617;DHT22;7908;51.688;7.130;2023-04-01T16:19:58;11.00;99.90
15617;DHT22;7908;51.688;7.130;2023-04-01T16:22:35;11.00;99.90
15617;DHT22;7908;51.688;7.130;2023-04-01T16:25:19;11.00;99.90
15617;DHT22;7908;51.688;7.130;2023-04-01T16:28:02;11.00;99.90
15617;DHT22;7908;51.688;7.130;2023-04-01T16:30:36;11.00;99.90
15617;DHT22;7908;51.688;7.130;2023-04-01T16:33:12;11.00;99.90
15617;DHT22;7908;51.688;7.130;2023-04-01T16:35:49;11.00;99.90
15617;DHT22;7908;51.688;7.130;2023-04-01T16:38:25;11.00;99.90
15617;DHT22;7908;51.688;7.130;2023-04-01T16:41:11;11.00;99.90
15617;DHT22;7908;51.688;7.130;2023-04-01T16:43:44;11.00;99.90
15617;DHT22;7908;51.688;7.130;2023-04-01T16:46:29;11.00;99.90
15617;DHT22;7908;51.688;7.130;2023-04-01T16:49:24;11.00;99.90
15617;DHT22;7908;51.688;7.130;2023-04-01T16:52:04;10.90;99.90
15617;DHT22;7908;51.688;7.130;2023-04-01T16:54:45;10.90;99.90
15617;DHT22;7908;51.688;7.130;2023-04-01T16:57:19;10.90;99.90
15617;DHT22;7908;51.688;7.130;2023-04-01T16:59:57;10.90;99.90
15617;DHT22;7908;51.688;7.130;2023-04-01T17:02:33;10.90;99.90
15617;DHT22;7908;51.688;7.130;2023-04-01T17:05:10;10.90;99.90
15617;DHT22;7908;51.688;7.130;2023-04-01T17:07:48;10.90;99.90
15617;DHT22;7908;51.688;7.130;2023-04-01T17:10:41;10.90;99.90
15617;DHT22;7908;51.688;7.130;2023-04-01T17:13:42;10.90;99.90
15617;DHT22;7908;51.688;7.130;2023-04-01T17:16:30;10.90;99.90
15617;DHT22;7908;51.688;7.130;2023-04-01T17:19:11;10.90;99.90
15617;DHT22;7908;51.688;7.130;2023-04-01T17:21:56;10.80;99.90
15617;DHT22;7908;51.688;7.130;2023-04-01T17:24:41;10.80;99.90
15617;DHT22;7908;51.688;7.130;2023-04-01T17:27:23;10.80;99.90
15617;DHT22;7908;51.688;7.130;2023-04-01T17:30:17;10.70;99.90
15617;DHT22;7908;51.688;7.130;2023-04-01T17:35:55;10.70;99.90
15617;DHT22;7908;51.688;7.130;2023-04-01T17:38:45;10.70;99.90
15617;DHT22;7908;51.688;7.130;2023-04-01T17:41:28;10.70;99.90
15617;DHT22;7908;51.688;7.130;2023-04-01T17:44:10;10.70;99.90
15617;DHT22;7908;51.688;7.130;2023-04-01T17:46:54;10.70;99.90
15617;DHT22;7908;51.688;7.130;2023-04-01T17:49:30;10.60;99.90
15617;DHT22;7908;51.688;7.130;2023-04-01T17:52:09;10.50;99.90
15617;DHT22;7908;51.688;7.130;2023-04-01T17:54:48;10.50;99.90
15617;DHT22;7908;51.688;7.130;2023-04-01T17:57:37;10.50;99.90
15617;DHT22;7908;51.688;7.130;2023-04-01T18:00:22;10.50;99.90
15617;DHT22;7908;51.688;7.130;2023-04-01T18:03:05;10.50;99.90
15617;DHT22;7908;51.688;7.130;2023-04-01T18:05:52;10.50;99.90
15617;DHT22;7908;51.688;7.130;2023-04-01T18:08:37;10.50;99.90
15617;DHT22;7908;51.688;7.130;2023-04-01T18:11:16;10.50;99.90
15617;DHT22;7908;51.688;7.130;2023-04-01T18:14:10;10.50;99.90
15617;DHT22;7908;51.688;7.130;2023-04-01T18:17:04;10.40;99.90
15617;DHT22;7908;51.688;7.130;2023-04-01T18:19:42;10.40;99.90
15617;DHT22;7908;51.688;7.130;2023-04-01T18:22:20;10.40;99.90
15617;DHT22;7908;51.688;7.130;2023-04-01T18:24:59;10.40;99.90
15617;DHT22;7908;51.688;7.130;2023-04-01T18:27:33;10.40;99.90
15617;DHT22;7908;51.688;7.130;2023-04-01T18:30:13;10.30;99.90
15617;DHT22;7908;51.688;7.130;2023-04-01T18:32:49;10.30;99.90
15617;DHT22;7908;51.688;7.130;2023-04-01T18:35:28;10.40;99.90
15617;DHT22;7908;51.688;7.130;2023-04-01T18:38:04;10.30;99.90
15617;DHT22;7908;51.688;7.130;2023-04-01T18:40:37;10.20;99.90
15617;DHT22;7908;51.688;7.130;2023-04-01T18:43:16;10.10;99.90
15617;DHT22;7908;51.688;7.130;2023-04-01T18:45:52;10.10;99.90
15617;DHT22;7908;51.688;7.130;2023-04-01T18:48:38;10.00;99.90